createdAt,value
2018-06-05T00:01:15.327Z,12.17
2018-06-05T00:03:44.426Z,13.03
2018-06-05T00:06:13.550Z,11.60
2018-06-05T00:08:42.626Z,12.90
2018-06-05T00:11:11.703Z,12.70
2018-06-05T00:13:40.806Z,12.63
2018-06-05T00:16:09.893Z,12.60
2018-06-05T00:18:38.994Z,12.17
2018-06-05T00:21:08.095Z,12.60
2018-06-05T00:23:37.171Z,12.27
2018-06-05T00:26:06.942Z,12.60
2018-06-05T00:28:36.014Z,13.10
2018-06-05T00:31:05.291Z,13.00
2018-06-05T00:33:34.402Z,12.10
2018-06-05T00:36:03.475Z,13.00
2018-06-05T00:38:32.590Z,13.67
2018-06-05T00:41:01.710Z,12.93
2018-06-05T00:43:30.795Z,13.20
2018-06-05T00:45:59.926Z,12.33
2018-06-05T00:48:29.084Z,13.47
2018-06-05T00:50:58.169Z,13.07
2018-06-05T00:53:27.950Z,14.60
2018-06-05T00:55:57.090Z,14.63
2018-06-05T00:58:26.174Z,13.07
2018-06-05T01:00:55.276Z,14.80
2018-06-05T01:03:24.378Z,12.33
2018-06-05T01:05:53.470Z,13.67
2018-06-05T01:08:22.537Z,12.80
2018-06-05T01:10:52.415Z,14.90
2018-06-05T01:13:21.497Z,13.23
2018-06-05T01:15:50.767Z,14.43
2018-06-05T01:18:19.829Z,15.07
2018-06-05T01:20:48.898Z,14.33
2018-06-05T01:23:17.986Z,15.50
2018-06-05T01:25:47.059Z,12.50
2018-06-05T01:28:16.130Z,13.50
2018-06-05T01:30:45.219Z,13.20
2018-06-05T01:33:14.355Z,15.73
2018-06-05T01:35:46.645Z,14.13
2018-06-05T01:38:19.433Z,15.57
2018-06-05T01:40:48.959Z,12.57
2018-06-05T01:43:18.046Z,13.63
2018-06-05T01:45:47.142Z,14.30
2018-06-05T01:48:16.258Z,14.03
2018-06-05T01:50:45.330Z,14.10
2018-06-05T01:53:14.415Z,14.70
2018-06-05T01:55:43.600Z,13.60
2018-06-05T01:58:12.682Z,15.40
2018-06-05T02:00:41.766Z,14.37
2018-06-05T02:03:10.914Z,14.07
2018-06-05T02:05:39.990Z,14.37
2018-06-05T02:08:09.105Z,13.97
2018-06-05T02:10:38.997Z,14.00
2018-06-05T02:13:08.088Z,14.27
2018-06-05T02:15:37.170Z,14.03
2018-06-05T02:18:06.223Z,15.03
2018-06-05T02:20:35.346Z,15.50
2018-06-05T02:23:05.319Z,15.30
2018-06-05T02:25:35.274Z,15.70
2018-06-05T02:28:04.368Z,14.80
2018-06-05T02:30:34.251Z,14.97
2018-06-05T02:33:04.382Z,13.60
2018-06-05T02:35:33.911Z,13.10
2018-06-05T02:38:03.051Z,16.50
2018-06-05T02:40:32.239Z,15.33
2018-06-05T02:43:01.311Z,15.20
2018-06-05T02:45:30.407Z,14.70
2018-06-05T02:47:59.535Z,13.93
2018-06-05T02:50:28.634Z,15.37
2018-06-05T02:52:57.714Z,14.77
2018-06-05T02:55:26.862Z,15.10
2018-06-05T02:57:56.747Z,14.43
2018-06-05T03:00:27.986Z,17.03
2018-06-05T03:02:57.350Z,16.07
2018-06-05T03:05:26.435Z,16.57
2018-06-05T03:07:55.544Z,16.93
2018-06-05T03:10:24.631Z,14.30
2018-06-05T03:12:53.739Z,14.53
2018-06-05T03:15:22.830Z,16.40
2018-06-05T03:17:51.918Z,16.77
2018-06-05T03:20:21.010Z,16.40
2018-06-05T03:22:50.099Z,15.27
2018-06-05T03:25:19.190Z,16.83
2018-06-05T03:27:48.331Z,14.37
2018-06-05T03:30:17.402Z,15.13
2018-06-05T03:32:46.530Z,15.00
2018-06-05T03:35:16.175Z,16.07
2018-06-05T03:37:45.270Z,14.20
2018-06-05T03:40:14.349Z,15.03
2018-06-05T03:42:43.450Z,14.93
2018-06-05T03:45:12.847Z,16.03
2018-06-05T03:47:41.946Z,14.73
2018-06-05T03:50:11.087Z,15.87
2018-06-05T03:52:40.172Z,15.47
2018-06-05T03:55:09.245Z,15.90
2018-06-05T03:57:38.346Z,15.10
2018-06-05T04:00:08.182Z,14.30
2018-06-05T04:02:37.370Z,13.97
2018-06-05T04:05:06.491Z,14.80
2018-06-05T04:07:35.562Z,15.13
2018-06-05T04:10:04.651Z,15.10
2018-06-05T04:12:33.770Z,14.03
2018-06-05T04:15:03.602Z,14.87
2018-06-05T04:17:32.694Z,12.97
2018-06-05T04:20:01.800Z,15.60
2018-06-05T04:22:30.886Z,14.60
2018-06-05T04:25:00.778Z,13.00
2018-06-05T04:27:29.923Z,13.30
2018-06-05T04:29:58.966Z,14.17
2018-06-05T04:32:28.078Z,13.10
2018-06-05T04:34:57.259Z,13.90
2018-06-05T04:37:25.898Z,13.97
2018-06-05T04:39:55.370Z,15.20
2018-06-05T04:42:24.514Z,15.50
2018-06-05T04:44:53.591Z,15.40
2018-06-05T04:47:22.687Z,14.37
2018-06-05T04:49:51.791Z,13.40
2018-06-05T04:52:20.870Z,14.70
2018-06-05T04:54:49.925Z,13.40
2018-06-05T04:57:19.948Z,12.83
2018-06-05T04:59:49.110Z,13.13
2018-06-05T05:02:18.614Z,12.57
2018-06-05T05:04:47.946Z,13.50
2018-06-05T05:07:17.051Z,12.67
2018-06-05T05:09:46.141Z,13.30
2018-06-05T05:12:15.292Z,12.30
2018-06-05T05:14:44.387Z,14.80
2018-06-05T05:17:14.247Z,13.70
2018-06-05T05:19:43.358Z,13.60
2018-06-05T05:22:12.435Z,12.60
2018-06-05T05:24:41.514Z,12.57
2018-06-05T05:27:10.788Z,12.73
2018-06-05T05:29:39.874Z,12.83
2018-06-05T05:32:08.950Z,13.47
2018-06-05T05:34:38.050Z,14.57
2018-06-05T05:37:07.176Z,13.70
2018-06-05T05:39:36.302Z,11.87
2018-06-05T05:42:05.443Z,12.97
2018-06-05T05:44:34.530Z,12.10
2018-06-05T05:47:03.690Z,12.40
2018-06-05T05:49:32.718Z,13.03
2018-06-05T05:52:02.230Z,13.10
2018-06-05T05:54:31.386Z,13.00
2018-06-05T05:57:00.827Z,12.70
2018-06-05T05:59:30.468Z,11.87
2018-06-05T06:01:59.622Z,12.60
2018-06-05T06:04:28.874Z,12.93
2018-06-05T06:06:57.962Z,13.37
2018-06-05T06:09:27.069Z,13.27
2018-06-05T06:11:56.157Z,12.67
2018-06-05T06:14:25.235Z,12.47
2018-06-05T06:16:54.391Z,11.97
2018-06-05T06:19:23.467Z,12.77
2018-06-05T06:21:52.555Z,13.20
2018-06-05T06:24:21.702Z,12.77
2018-06-05T06:26:51.627Z,13.90
2018-06-05T06:29:20.678Z,12.80
2018-06-05T06:31:50.229Z,11.90
2018-06-05T06:34:19.662Z,12.30
2018-06-05T06:36:48.738Z,12.00
2018-06-05T06:39:17.876Z,13.73
2018-06-05T06:41:46.995Z,13.50
2018-06-05T06:44:16.128Z,12.37
2018-06-05T06:46:45.219Z,11.97
2018-06-05T06:49:14.419Z,12.93
2018-06-05T06:51:44.042Z,14.67
2018-06-05T06:54:13.341Z,12.30
2018-06-05T06:56:42.367Z,12.53
2018-06-05T06:59:11.516Z,12.40
2018-06-05T07:01:40.654Z,12.30
2018-06-05T07:04:10.083Z,12.53
2018-06-05T07:06:39.171Z,13.23
2018-06-05T07:09:09.302Z,13.97
2018-06-05T07:11:38.382Z,13.30
2018-06-05T07:14:07.675Z,12.70
2018-06-05T07:16:36.818Z,12.70
2018-06-05T07:19:05.933Z,12.33
2018-06-05T07:21:35.022Z,13.50
2018-06-05T07:24:04.160Z,11.27
2018-06-05T07:26:33.187Z,13.73
2018-06-05T07:29:02.439Z,12.77
2018-06-05T07:31:32.262Z,11.63
2018-06-05T07:34:01.330Z,13.53
2018-06-05T07:36:30.512Z,11.23
2018-06-05T07:38:59.570Z,12.30
2018-06-05T07:41:29.550Z,11.90
2018-06-05T07:43:58.943Z,11.10
2018-06-05T07:46:28.866Z,11.07
2018-06-05T07:48:57.676Z,12.30
2018-06-05T07:51:27.199Z,11.07
2018-06-05T07:53:56.315Z,11.27
2018-06-05T07:56:25.667Z,10.80
2018-06-05T07:58:54.734Z,11.73
2018-06-05T08:01:23.807Z,11.47
2018-06-05T08:03:53.018Z,11.70
2018-06-05T08:06:22.088Z,12.07
2018-06-05T08:08:51.167Z,11.00
2018-06-05T08:11:20.966Z,11.70
2018-06-05T08:13:50.047Z,11.63
2018-06-05T08:16:19.114Z,11.20
2018-06-05T08:18:48.226Z,12.30
2018-06-05T08:21:16.971Z,11.80
2018-06-05T08:23:46.450Z,12.80
2018-06-05T08:26:15.337Z,11.77
2018-06-05T08:28:44.459Z,12.30
2018-06-05T08:31:13.551Z,11.73
2018-06-05T08:33:42.839Z,12.30
2018-06-05T08:36:12.178Z,12.20
2018-06-05T08:38:41.795Z,12.27
2018-06-05T08:41:10.930Z,12.30
2018-06-05T08:43:40.654Z,11.27
2018-06-05T08:46:09.734Z,13.27
2018-06-05T08:48:38.791Z,11.07
2018-06-05T08:51:07.937Z,11.97
2018-06-05T08:53:37.035Z,12.47
2018-06-05T08:56:07.007Z,11.70
2018-06-05T08:58:36.104Z,12.33
2018-06-05T09:01:05.330Z,11.93
2018-06-05T09:03:34.471Z,11.30
2018-06-05T09:06:03.567Z,12.90
2018-06-05T09:08:32.642Z,11.27
2018-06-05T09:11:01.762Z,12.73
2018-06-05T09:13:30.830Z,12.30
2018-06-05T09:15:59.973Z,12.40
2018-06-05T09:18:29.078Z,12.87
2018-06-05T09:20:58.162Z,12.57
2018-06-05T09:23:27.231Z,11.80
2018-06-05T09:25:56.322Z,11.10
2018-06-05T09:28:25.402Z,12.37
2018-06-05T09:30:54.507Z,11.80
2018-06-05T09:33:23.579Z,12.17
2018-06-05T09:35:52.682Z,11.20
2018-06-05T09:38:21.814Z,11.60
2018-06-05T09:40:50.935Z,12.50
2018-06-05T09:43:20.052Z,12.43
2018-06-05T09:45:49.292Z,11.67
2018-06-05T09:48:18.830Z,13.37
2018-06-05T09:50:48.134Z,11.90
2018-06-05T09:53:17.992Z,12.07
2018-06-05T09:55:47.906Z,12.93
2018-06-05T09:58:17.191Z,11.13
2018-06-05T10:00:52.764Z,11.93
2018-06-05T10:03:22.617Z,12.07
2018-06-05T10:05:51.667Z,11.93
2018-06-05T10:08:20.770Z,11.33
2018-06-05T10:10:49.858Z,11.70
2018-06-05T10:13:18.930Z,12.43
2018-06-05T10:15:48.043Z,10.97
2018-06-05T10:18:17.153Z,10.70
2018-06-05T10:20:47.015Z,11.10
2018-06-05T10:23:16.268Z,12.30
2018-06-05T10:25:46.034Z,11.43
2018-06-05T10:28:15.174Z,12.73
2018-06-05T10:30:44.882Z,12.07
2018-06-05T10:33:14.294Z,11.27
2018-06-05T10:35:43.366Z,11.70
2018-06-05T10:38:12.478Z,11.03
2018-06-05T10:40:41.568Z,11.60
2018-06-05T10:43:10.646Z,10.20
2018-06-05T10:45:39.777Z,10.97
2018-06-05T10:48:08.931Z,11.23
2018-06-05T10:50:39.645Z,12.53
2018-06-05T10:53:09.318Z,11.80
2018-06-05T10:55:38.467Z,11.70
2018-06-05T10:58:07.602Z,10.83
2018-06-05T11:00:36.705Z,10.60
2018-06-05T11:03:05.802Z,10.27
2018-06-05T11:05:34.906Z,10.83
2018-06-05T11:08:04.081Z,11.07
2018-06-05T11:10:33.908Z,11.90
2018-06-05T11:13:03.082Z,10.63
2018-06-05T11:15:32.166Z,10.20
2018-06-05T11:18:01.236Z,9.07
2018-06-05T11:20:30.363Z,9.50
2018-06-05T11:22:59.434Z,10.10
2018-06-05T11:25:28.529Z,10.40
2018-06-05T11:27:57.658Z,10.77
2018-06-05T11:30:27.546Z,9.40
2018-06-05T11:32:56.613Z,9.33
2018-06-05T11:35:25.734Z,9.40
2018-06-05T11:37:55.342Z,10.40
2018-06-05T11:40:24.691Z,10.23
2018-06-05T11:42:53.794Z,9.47
2018-06-05T11:45:22.884Z,10.70
2018-06-05T11:47:52.059Z,10.10
2018-06-05T11:50:21.198Z,11.13
2018-06-05T11:52:50.311Z,10.30
2018-06-05T11:55:19.407Z,10.70
2018-06-05T11:57:48.498Z,11.10
2018-06-05T12:00:17.575Z,11.20
2018-06-05T12:02:46.651Z,9.90
2018-06-05T12:05:15.779Z,11.13
2018-06-05T12:07:44.835Z,10.00
2018-06-05T12:10:13.902Z,10.93
2018-06-05T12:12:42.558Z,11.37
2018-06-05T12:15:11.630Z,11.70
2018-06-05T12:17:41.118Z,11.33
2018-06-05T12:20:10.244Z,10.73
2018-06-05T12:22:39.315Z,10.93
2018-06-05T12:25:08.654Z,10.70
2018-06-05T12:27:38.400Z,10.23
2018-06-05T12:30:07.488Z,10.30
2018-06-05T12:32:36.942Z,9.80
2018-06-05T12:35:07.074Z,9.80
2018-06-05T12:37:36.370Z,9.20
2018-06-05T12:40:05.490Z,10.33
2018-06-05T12:42:34.691Z,9.40
2018-06-05T12:45:03.775Z,9.40
2018-06-05T12:47:32.858Z,10.47
2018-06-05T12:50:01.983Z,10.70
2018-06-05T12:52:31.050Z,10.00
2018-06-05T12:55:00.126Z,10.53
2018-06-05T12:57:29.205Z,10.20
2018-06-05T12:59:58.293Z,10.20
2018-06-05T13:02:27.894Z,11.10
2018-06-05T13:04:57.019Z,10.67
2018-06-05T13:07:26.135Z,10.33
2018-06-05T13:09:55.227Z,10.17
2018-06-05T13:12:24.515Z,10.40
2018-06-05T13:14:53.718Z,11.07
2018-06-05T13:17:22.809Z,11.03
2018-06-05T13:19:51.858Z,11.20
2018-06-05T13:22:20.975Z,10.80
2018-06-05T13:24:50.971Z,11.63
2018-06-05T13:27:19.994Z,9.90
2018-06-05T13:29:49.115Z,10.60
2018-06-05T13:32:18.218Z,11.17
2018-06-05T13:34:47.290Z,11.20
2018-06-05T13:37:16.796Z,11.77
2018-06-05T13:39:45.869Z,11.07
2018-06-05T13:42:15.772Z,11.00
2018-06-05T13:44:45.237Z,10.70
2018-06-05T13:47:14.427Z,10.80
2018-06-05T13:49:43.495Z,10.57
2018-06-05T13:52:12.611Z,11.57
2018-06-05T13:54:41.711Z,11.97
2018-06-05T13:57:10.799Z,10.90
2018-06-05T13:59:39.874Z,12.00
2018-06-05T14:02:09.779Z,12.50
2018-06-05T14:04:38.910Z,11.90
2018-06-05T14:07:07.978Z,11.07
2018-06-05T14:09:37.063Z,10.80
2018-06-05T14:12:06.395Z,11.80
2018-06-05T14:14:35.590Z,10.57
2018-06-05T14:17:04.294Z,11.10
2018-06-05T14:19:33.395Z,10.30
2018-06-05T14:22:02.483Z,11.37
2018-06-05T14:24:31.567Z,11.00
2018-06-05T14:27:00.697Z,11.53
2018-06-05T14:29:29.816Z,10.97
2018-06-05T14:31:58.934Z,11.47
2018-06-05T14:34:28.038Z,10.27
2018-06-05T14:36:57.159Z,11.30
2018-06-05T14:39:26.242Z,10.33
2018-06-05T14:41:55.377Z,10.37
2018-06-05T14:44:25.239Z,11.43
2018-06-05T14:46:54.307Z,10.33
2018-06-05T14:49:23.442Z,10.77
2018-06-05T14:51:52.519Z,10.90
2018-06-05T14:54:21.684Z,10.90
2018-06-05T14:56:50.790Z,10.70
2018-06-05T14:59:19.870Z,10.33
2018-06-05T15:01:48.954Z,11.07
2018-06-05T15:04:18.567Z,10.97
2018-06-05T15:06:47.663Z,11.50
2018-06-05T15:09:16.947Z,10.77
2018-06-05T15:11:46.075Z,11.27
2018-06-05T15:14:15.167Z,11.30
2018-06-05T15:16:44.335Z,10.80
2018-06-05T15:19:13.413Z,11.10
2018-06-05T15:21:42.559Z,10.27
2018-06-05T15:24:11.650Z,11.53
2018-06-05T15:26:41.459Z,10.27
2018-06-05T15:29:10.775Z,11.20
2018-06-05T15:31:39.865Z,11.07
2018-06-05T15:34:09.032Z,11.50
2018-06-05T15:36:38.134Z,11.63
2018-06-05T15:39:09.995Z,10.90
2018-06-05T15:41:39.077Z,10.93
2018-06-05T15:44:08.200Z,12.37
2018-06-05T15:46:37.279Z,10.53
2018-06-05T15:49:06.575Z,12.90
2018-06-05T15:51:35.677Z,12.17
2018-06-05T15:54:04.847Z,11.30
2018-06-05T15:56:33.997Z,10.90
2018-06-05T15:59:03.087Z,11.50
2018-06-05T16:01:32.722Z,10.83
2018-06-05T16:04:01.811Z,12.10
2018-06-05T16:06:31.102Z,10.43
2018-06-05T16:09:00.247Z,11.33
2018-06-05T16:11:29.323Z,10.90
2018-06-05T16:13:58.403Z,11.00
2018-06-05T16:16:27.507Z,12.10
2018-06-05T16:18:56.583Z,10.90
2018-06-05T16:21:25.663Z,11.63
2018-06-05T16:23:54.790Z,11.73
2018-06-05T16:26:24.813Z,11.03
2018-06-05T16:28:53.915Z,10.87
2018-06-05T16:31:23.820Z,11.03
2018-06-05T16:33:52.963Z,11.03
2018-06-05T16:36:22.083Z,11.20
2018-06-05T16:38:51.002Z,12.23
2018-06-05T16:41:19.855Z,10.63
2018-06-05T16:43:48.902Z,10.97
2018-06-05T16:46:18.048Z,12.57
2018-06-05T16:48:47.179Z,10.90
2018-06-05T16:51:16.429Z,12.50
2018-06-05T16:53:45.530Z,11.77
2018-06-05T16:56:14.783Z,11.27
2018-06-05T16:58:43.867Z,13.30
2018-06-05T17:01:12.937Z,12.70
2018-06-05T17:03:42.814Z,11.50
2018-06-05T17:06:11.886Z,11.87
2018-06-05T17:08:41.146Z,13.10
2018-06-05T17:11:10.057Z,12.17
2018-06-05T17:13:39.401Z,11.23
2018-06-05T17:16:08.490Z,13.13
2018-06-05T17:18:37.571Z,11.53
2018-06-05T17:21:07.022Z,11.80
2018-06-05T17:23:36.120Z,11.30
2018-06-05T17:26:05.506Z,12.47
2018-06-05T17:28:34.620Z,12.17
2018-06-05T17:31:03.714Z,13.20
2018-06-05T17:33:32.887Z,12.80
2018-06-05T17:36:02.679Z,12.37
2018-06-05T17:38:31.426Z,12.00
2018-06-05T17:41:00.507Z,11.60
2018-06-05T17:43:29.610Z,12.07
2018-06-05T17:45:59.859Z,11.60
2018-06-05T17:48:29.029Z,12.40
2018-06-05T17:50:58.855Z,13.00
2018-06-05T17:53:27.982Z,12.27
2018-06-05T17:55:57.230Z,12.67
2018-06-05T17:58:26.919Z,12.47
2018-06-05T18:00:56.364Z,12.53
2018-06-05T18:03:26.151Z,11.90
2018-06-05T18:05:55.323Z,12.70
2018-06-05T18:08:24.867Z,11.80
2018-06-05T18:10:54.910Z,11.67
2018-06-05T18:13:24.775Z,12.27
2018-06-05T18:15:53.942Z,13.00
2018-06-05T18:18:23.601Z,12.37
2018-06-05T18:20:52.703Z,12.00
2018-06-05T18:23:22.310Z,13.00
2018-06-05T18:25:51.475Z,12.20
2018-06-05T18:28:20.572Z,12.63
2018-06-05T18:30:49.706Z,12.80
2018-06-05T18:33:18.816Z,12.03
2018-06-05T18:35:47.918Z,12.93
2018-06-05T18:38:17.422Z,12.70
2018-06-05T18:40:46.570Z,11.00
2018-06-05T18:43:15.682Z,10.63
2018-06-05T18:45:44.750Z,11.83
2018-06-05T18:48:13.847Z,12.30
2018-06-05T18:50:43.851Z,11.80
2018-06-05T18:53:13.075Z,11.83
2018-06-05T18:55:42.170Z,11.90
2018-06-05T18:58:11.810Z,10.97
2018-06-05T19:00:40.897Z,11.60
2018-06-05T19:03:09.618Z,11.47
2018-06-05T19:05:38.839Z,11.10
2018-06-05T19:08:08.796Z,11.40
2018-06-05T19:10:38.456Z,11.57
2018-06-05T19:13:08.115Z,12.07
2018-06-05T19:15:38.098Z,11.27
2018-06-05T19:18:07.670Z,11.20
2018-06-05T19:20:36.606Z,11.67
2018-06-05T19:23:06.277Z,12.43
2018-06-05T19:25:35.367Z,11.87
2018-06-05T19:28:04.666Z,13.10
2018-06-05T19:30:34.136Z,11.83
2018-06-05T19:33:03.195Z,12.47
2018-06-05T19:35:32.354Z,11.57
2018-06-05T19:38:01.511Z,11.40
2018-06-05T19:40:30.616Z,12.20
2018-06-05T19:42:59.753Z,11.30
2018-06-05T19:45:28.843Z,12.23
2018-06-05T19:47:57.935Z,12.47
2018-06-05T19:50:28.655Z,12.20
2018-06-05T19:52:57.719Z,12.70
2018-06-05T19:55:26.806Z,10.97
2018-06-05T19:57:55.919Z,11.70
2018-06-05T20:00:25.798Z,13.70
2018-06-05T20:02:54.878Z,13.87
2018-06-05T20:05:23.988Z,13.20
2018-06-05T20:07:53.063Z,13.67
2018-06-05T20:10:22.139Z,13.13
2018-06-05T20:12:51.266Z,13.93
2018-06-05T20:15:20.358Z,14.13
2018-06-05T20:17:49.459Z,12.47
2018-06-05T20:20:18.587Z,13.50
2018-06-05T20:22:47.663Z,12.87
2018-06-05T20:25:16.799Z,12.37
2018-06-05T20:27:45.919Z,12.73
2018-06-05T20:30:14.914Z,11.20
2018-06-05T20:32:44.025Z,14.10
2018-06-05T20:35:13.223Z,12.67
2018-06-05T20:37:42.379Z,12.83
2018-06-05T20:40:12.283Z,14.30
2018-06-05T20:42:41.850Z,12.60
2018-06-05T20:45:11.018Z,11.93
2018-06-05T20:47:40.143Z,12.10
2018-06-05T20:50:09.250Z,12.93
2018-06-05T20:52:38.361Z,11.70
2018-06-05T20:55:07.598Z,11.73
2018-06-05T20:57:36.688Z,12.30
2018-06-05T21:00:06.317Z,12.80
2018-06-05T21:02:35.511Z,12.20
2018-06-05T21:05:04.576Z,13.20
2018-06-05T21:07:34.602Z,12.70
2018-06-05T21:10:04.446Z,14.03
2018-06-05T21:12:33.771Z,11.20
2018-06-05T21:15:03.687Z,10.13
2018-06-05T21:17:33.586Z,12.27
2018-06-05T21:20:03.324Z,10.97
2018-06-05T21:22:32.595Z,12.23
2018-06-05T21:25:02.528Z,12.83
2018-06-05T21:27:33.142Z,14.20
2018-06-05T21:30:01.871Z,13.30
2018-06-05T21:32:31.327Z,12.30
2018-06-05T21:35:00.426Z,14.07
2018-06-05T21:37:29.663Z,11.83
2018-06-05T21:39:58.964Z,13.37
2018-06-05T21:42:28.586Z,12.07
2018-06-05T21:44:57.694Z,12.10
2018-06-05T21:47:26.873Z,13.27
2018-06-05T21:49:55.947Z,13.73
2018-06-05T21:52:25.056Z,13.83
2018-06-05T21:54:54.182Z,15.10
2018-06-05T21:57:23.264Z,14.90
2018-06-05T21:59:52.342Z,14.63
2018-06-05T22:02:21.912Z,14.43
2018-06-05T22:04:51.011Z,14.77
2018-06-05T22:07:20.123Z,16.10
2018-06-05T22:09:49.226Z,15.53
2018-06-05T22:12:18.331Z,14.37
2018-06-05T22:14:47.435Z,15.40
2018-06-05T22:17:16.539Z,15.80
2018-06-05T22:19:45.843Z,17.07
2018-06-05T22:22:14.948Z,17.20
2018-06-05T22:24:44.023Z,16.53
2018-06-05T22:27:13.090Z,15.47
2018-06-05T22:29:42.207Z,15.13
2018-06-05T22:32:11.306Z,15.33
2018-06-05T22:34:40.369Z,15.83
2018-06-05T22:37:09.490Z,16.30
2018-06-05T22:39:38.560Z,19.20
2018-06-05T22:42:07.715Z,16.33
2018-06-05T22:44:36.831Z,16.13
2018-06-05T22:47:05.938Z,15.83
2018-06-05T22:49:35.043Z,16.70
2018-06-05T22:52:04.151Z,15.60
2018-06-05T22:54:33.214Z,15.90
2018-06-05T22:57:02.279Z,16.10
2018-06-05T22:59:31.391Z,18.20
2018-06-05T23:02:01.307Z,16.50
2018-06-05T23:04:30.396Z,16.80
2018-06-05T23:06:59.499Z,17.17
2018-06-05T23:09:29.387Z,16.40
2018-06-05T23:11:58.466Z,16.87
2018-06-05T23:14:27.596Z,16.47
2018-06-05T23:16:56.674Z,16.03
2018-06-05T23:19:25.753Z,15.83
2018-06-05T23:21:54.852Z,17.23
2018-06-05T23:24:23.934Z,16.27
2018-06-05T23:26:53.000Z,16.20
2018-06-05T23:29:22.131Z,16.50
2018-06-05T23:31:51.178Z,17.33
2018-06-05T23:34:20.263Z,18.57
2018-06-05T23:36:49.366Z,18.07
2018-06-05T23:39:18.438Z,16.20
2018-06-05T23:41:47.524Z,18.87
2018-06-05T23:44:16.652Z,18.27
2018-06-05T23:46:45.835Z,17.43
2018-06-05T23:49:14.931Z,16.90
2018-06-05T23:51:44.088Z,19.80
2018-06-05T23:54:13.149Z,16.77
2018-06-05T23:56:42.227Z,16.63
2018-06-05T23:59:11.323Z,17.70
